Weather in selectable METAR weather stations

1) Select the Continent / Group:

[Europe]  [Asia]  [Africa]  [North America]  [South America]  
[Central America and Caribbean]  [Oceania]  [Antarctica]  
2) Select the Weather station (City):


METAR = SABE 131600Z 36006KT 300V030 CAVOK 16/10 Q1022 NOSIG

STATIONSABE
NAMEBuenos Aires/Newbery, C, AG
OBSERVED13.05.2021 13:00 (13.05.2021 16:00 UTC), 29 min ago
TEMPERATURE16.0°C ( 61°F)
WINDCHILL15.7 °C (60 °F)
WINDN (360 degrees) at 7 MPH (6 knots; 3.1 m/s)
HUMIDITY68%
PRESSURE1022 hPa
Click here to search the weather station or to give the station identifier
(four-character ICAO Location Indicator) for weather data.